sensor_id;sensor_type;location;lat;lon;timestamp;pressure;altitude;pressure_sealevel;temperature;humidity
69127;BME280;56688;50.234;19.292;2023-04-01T00:01:05;96796.48;;;9.09;70.39
69127;BME280;56688;50.234;19.292;2023-04-01T00:03:33;96794.25;;;9.08;70.58
69127;BME280;56688;50.234;19.292;2023-04-01T00:06:01;96792.31;;;9.05;70.46
69127;BME280;56688;50.234;19.292;2023-04-01T00:08:29;96787.42;;;9.02;70.73
69127;BME280;56688;50.234;19.292;2023-04-01T00:10:56;96788.98;;;8.99;70.94
69127;BME280;56688;50.234;19.292;2023-04-01T00:13:25;96786.14;;;8.95;70.94
69127;BME280;56688;50.234;19.292;2023-04-01T00:15:54;96781.52;;;8.91;71.21
69127;BME280;56688;50.234;19.292;2023-04-01T00:18:23;96782.77;;;8.87;71.37
69127;BME280;56688;50.234;19.292;2023-04-01T00:20:51;96778.05;;;8.87;71.45
69127;BME280;56688;50.234;19.292;2023-04-01T00:23:19;96776.46;;;8.87;71.57
69127;BME280;56688;50.234;19.292;2023-04-01T00:25:47;96772.37;;;8.87;71.74
69127;BME280;56688;50.234;19.292;2023-04-01T00:28:17;96771.80;;;8.89;71.74
69127;BME280;56688;50.234;19.292;2023-04-01T00:30:44;96771.16;;;8.93;71.87
69127;BME280;56688;50.234;19.292;2023-04-01T00:33:12;96768.58;;;8.94;71.80
69127;BME280;56688;50.234;19.292;2023-04-01T00:35:39;96765.61;;;8.94;71.65
69127;BME280;56688;50.234;19.292;2023-04-01T00:38:07;96768.69;;;8.92;71.57
69127;BME280;56688;50.234;19.292;2023-04-01T00:40:37;96769.94;;;8.88;71.52
69127;BME280;56688;50.234;19.292;2023-04-01T00:43:14;96768.83;;;8.81;71.51
69127;BME280;56688;50.234;19.292;2023-04-01T00:45:45;96774.17;;;8.73;71.70
69127;BME280;56688;50.234;19.292;2023-04-01T00:48:16;96775.21;;;8.67;71.75
69127;BME280;56688;50.234;19.292;2023-04-01T00:50:50;96779.02;;;8.63;72.10
69127;BME280;56688;50.234;19.292;2023-04-01T00:53:19;96780.30;;;8.61;72.38
69127;BME280;56688;50.234;19.292;2023-04-01T00:55:56;96785.19;;;8.61;72.67
69127;BME280;56688;50.234;19.292;2023-04-01T00:58:27;96782.41;;;8.63;72.92
69127;BME280;56688;50.234;19.292;2023-04-01T01:00:56;96787.52;;;8.64;73.04
69127;BME280;56688;50.234;19.292;2023-04-01T01:03:25;96788.13;;;8.63;73.20
69127;BME280;56688;50.234;19.292;2023-04-01T01:11:24;96780.05;;;8.70;73.08
69127;BME280;56688;50.234;19.292;2023-04-01T01:16:57;96784.06;;;8.76;72.91
69127;BME280;56688;50.234;19.292;2023-04-01T01:22:12;96788.59;;;8.78;73.10
69127;BME280;56688;50.234;19.292;2023-04-01T01:27:34;96787.77;;;8.72;73.30
69127;BME280;56688;50.234;19.292;2023-04-01T01:30:15;96787.42;;;8.71;73.14
69127;BME280;56688;50.234;19.292;2023-04-01T01:33:11;96786.05;;;8.70;73.26
69127;BME280;56688;50.234;19.292;2023-04-01T01:35:44;96788.11;;;8.71;73.28
69127;BME280;56688;50.234;19.292;2023-04-01T01:38:17;96783.27;;;8.71;73.38
69127;BME280;56688;50.234;19.292;2023-04-01T01:40:53;96774.48;;;8.71;73.32
69127;BME280;56688;50.234;19.292;2023-04-01T01:43:29;96777.92;;;8.70;73.32
69127;BME280;56688;50.234;19.292;2023-04-01T01:45:59;96775.33;;;8.69;73.38
69127;BME280;56688;50.234;19.292;2023-04-01T01:48:29;96778.16;;;8.66;73.30
69127;BME280;56688;50.234;19.292;2023-04-01T01:50:57;96775.01;;;8.66;73.43
69127;BME280;56688;50.234;19.292;2023-04-01T01:53:25;96770.05;;;8.66;73.49
69127;BME280;56688;50.234;19.292;2023-04-01T01:55:51;96772.42;;;8.67;73.53
69127;BME280;56688;50.234;19.292;2023-04-01T02:00:50;96767.70;;;8.69;73.38
69127;BME280;56688;50.234;19.292;2023-04-01T02:03:21;96768.70;;;8.67;73.22
69127;BME280;56688;50.234;19.292;2023-04-01T02:05:52;96779.89;;;8.65;73.20
69127;BME280;56688;50.234;19.292;2023-04-01T02:08:25;96785.65;;;8.62;73.45
69127;BME280;56688;50.234;19.292;2023-04-01T02:11:00;96782.33;;;8.58;73.61
69127;BME280;56688;50.234;19.292;2023-04-01T02:16:21;96779.83;;;8.53;73.87
69127;BME280;56688;50.234;19.292;2023-04-01T02:18:53;96778.48;;;8.53;73.82
69127;BME280;56688;50.234;19.292;2023-04-01T02:21:24;96782.45;;;8.54;73.92
69127;BME280;56688;50.234;19.292;2023-04-01T02:23:53;96785.23;;;8.54;73.95
69127;BME280;56688;50.234;19.292;2023-04-01T02:26:22;96788.33;;;8.52;74.14
69127;BME280;56688;50.234;19.292;2023-04-01T02:28:53;96792.37;;;8.51;74.09
69127;BME280;56688;50.234;19.292;2023-04-01T02:31:21;96793.15;;;8.51;74.20
69127;BME280;56688;50.234;19.292;2023-04-01T02:33:48;96792.92;;;8.51;74.43
69127;BME280;56688;50.234;19.292;2023-04-01T02:36:16;96796.31;;;8.52;74.32
69127;BME280;56688;50.234;19.292;2023-04-01T02:38:45;96796.22;;;8.53;74.36
69127;BME280;56688;50.234;19.292;2023-04-01T02:41:13;96795.46;;;8.54;74.44
69127;BME280;56688;50.234;19.292;2023-04-01T02:43:40;96795.29;;;8.55;74.31
69127;BME280;56688;50.234;19.292;2023-04-01T02:46:07;96799.00;;;8.57;74.35
69127;BME280;56688;50.234;19.292;2023-04-01T02:48:34;96802.27;;;8.57;74.33
69127;BME280;56688;50.234;19.292;2023-04-01T02:51:01;96798.91;;;8.59;74.33
69127;BME280;56688;50.234;19.292;2023-04-01T02:53:28;96801.30;;;8.61;74.33
69127;BME280;56688;50.234;19.292;2023-04-01T02:55:55;96804.85;;;8.63;74.23
69127;BME280;56688;50.234;19.292;2023-04-01T02:58:22;96809.25;;;8.66;74.06
69127;BME280;56688;50.234;19.292;2023-04-01T03:00:49;96811.47;;;8.67;74.13
69127;BME280;56688;50.234;19.292;2023-04-01T03:03:16;96813.10;;;8.67;74.09
69127;BME280;56688;50.234;19.292;2023-04-01T03:05:43;96816.04;;;8.66;74.01
69127;BME280;56688;50.234;19.292;2023-04-01T03:08:10;96815.11;;;8.65;73.92
69127;BME280;56688;50.234;19.292;2023-04-01T03:10:37;96814.58;;;8.66;73.96
69127;BME280;56688;50.234;19.292;2023-04-01T03:13:04;96820.00;;;8.67;73.91
69127;BME280;56688;50.234;19.292;2023-04-01T03:15:31;96818.02;;;8.67;73.84
69127;BME280;56688;50.234;19.292;2023-04-01T03:17:58;96820.42;;;8.68;73.90
69127;BME280;56688;50.234;19.292;2023-04-01T03:20:25;96819.32;;;8.66;73.86
69127;BME280;56688;50.234;19.292;2023-04-01T03:22:52;96817.20;;;8.67;73.88
69127;BME280;56688;50.234;19.292;2023-04-01T03:25:19;96815.11;;;8.66;73.90
69127;BME280;56688;50.234;19.292;2023-04-01T03:27:46;96811.70;;;8.68;73.90
69127;BME280;56688;50.234;19.292;2023-04-01T03:30:13;96807.08;;;8.66;73.99
69127;BME280;56688;50.234;19.292;2023-04-01T03:32:45;96808.52;;;8.66;74.03
69127;BME280;56688;50.234;19.292;2023-04-01T03:35:12;96812.58;;;8.67;74.03
69127;BME280;56688;50.234;19.292;2023-04-01T03:37:39;96816.11;;;8.64;74.24
69127;BME280;56688;50.234;19.292;2023-04-01T03:40:06;96815.85;;;8.61;74.14
69127;BME280;56688;50.234;19.292;2023-04-01T03:42:33;96812.80;;;8.62;74.27
69127;BME280;56688;50.234;19.292;2023-04-01T03:45:01;96814.62;;;8.64;74.31
69127;BME280;56688;50.234;19.292;2023-04-01T03:47:28;96814.58;;;8.66;74.18
69127;BME280;56688;50.234;19.292;2023-04-01T03:49:55;96812.77;;;8.69;74.35
69127;BME280;56688;50.234;19.292;2023-04-01T03:52:23;96809.73;;;8.69;74.58
69127;BME280;56688;50.234;19.292;2023-04-01T03:54:49;96809.98;;;8.67;74.74
69127;BME280;56688;50.234;19.292;2023-04-01T03:57:16;96814.20;;;8.61;74.95
69127;BME280;56688;50.234;19.292;2023-04-01T03:59:43;96814.11;;;8.57;75.13
69127;BME280;56688;50.234;19.292;2023-04-01T04:02:10;96818.52;;;8.55;75.32
69127;BME280;56688;50.234;19.292;2023-04-01T04:04:37;96820.66;;;8.53;75.49
69127;BME280;56688;50.234;19.292;2023-04-01T04:07:04;96820.48;;;8.54;75.54
69127;BME280;56688;50.234;19.292;2023-04-01T04:09:42;96817.36;;;8.55;75.53
69127;BME280;56688;50.234;19.292;2023-04-01T04:12:09;96820.85;;;8.54;75.57
69127;BME280;56688;50.234;19.292;2023-04-01T04:14:36;96819.96;;;8.53;75.50
69127;BME280;56688;50.234;19.292;2023-04-01T04:17:03;96820.50;;;8.51;75.66
69127;BME280;56688;50.234;19.292;2023-04-01T04:19:32;96815.15;;;8.49;75.68
69127;BME280;56688;50.234;19.292;2023-04-01T04:22:00;96817.97;;;8.50;75.93
69127;BME280;56688;50.234;19.292;2023-04-01T04:24:28;96816.90;;;8.52;75.85
69127;BME280;56688;50.234;19.292;2023-04-01T04:27:00;96818.81;;;8.54;75.65
69127;BME280;56688;50.234;19.292;2023-04-01T04:29:27;96819.34;;;8.54;75.79
69127;BME280;56688;50.234;19.292;2023-04-01T04:31:55;96816.40;;;8.53;75.76
69127;BME280;56688;50.234;19.292;2023-04-01T04:34:22;96816.00;;;8.52;75.60
69127;BME280;56688;50.234;19.292;2023-04-01T04:36:49;96818.71;;;8.50;75.75
69127;BME280;56688;50.234;19.292;2023-04-01T04:39:16;96820.02;;;8.50;75.78
69127;BME280;56688;50.234;19.292;2023-04-01T04:41:45;96819.61;;;8.52;75.88
69127;BME280;56688;50.234;19.292;2023-04-01T04:44:12;96819.82;;;8.55;75.91
69127;BME280;56688;50.234;19.292;2023-04-01T04:46:39;96817.91;;;8.59;75.85
69127;BME280;56688;50.234;19.292;2023-04-01T04:49:10;96817.42;;;8.62;75.58
69127;BME280;56688;50.234;19.292;2023-04-01T04:51:38;96815.71;;;8.62;75.44
69127;BME280;56688;50.234;19.292;2023-04-01T04:54:06;96815.52;;;8.62;75.45
69127;BME280;56688;50.234;19.292;2023-04-01T04:56:53;96819.13;;;8.61;75.32
69127;BME280;56688;50.234;19.292;2023-04-01T04:59:21;96821.75;;;8.64;75.44
69127;BME280;56688;50.234;19.292;2023-04-01T05:01:55;96826.04;;;8.68;75.53
69127;BME280;56688;50.234;19.292;2023-04-01T05:04:22;96825.39;;;8.71;75.39
69127;BME280;56688;50.234;19.292;2023-04-01T05:06:49;96827.44;;;8.77;75.24
69127;BME280;56688;50.234;19.292;2023-04-01T05:09:16;96829.93;;;8.82;75.38
69127;BME280;56688;50.234;19.292;2023-04-01T05:11:43;96828.58;;;8.86;75.33
69127;BME280;56688;50.234;19.292;2023-04-01T05:14:13;96828.55;;;8.89;75.30
69127;BME280;56688;50.234;19.292;2023-04-01T05:16:41;96830.30;;;8.91;75.21
69127;BME280;56688;50.234;19.292;2023-04-01T05:19:08;96827.08;;;8.95;75.12
69127;BME280;56688;50.234;19.292;2023-04-01T05:21:35;96826.60;;;8.99;75.06
69127;BME280;56688;50.234;19.292;2023-04-01T05:24:02;96828.95;;;9.03;74.88
69127;BME280;56688;50.234;19.292;2023-04-01T05:26:30;96824.98;;;9.09;74.84
69127;BME280;56688;50.234;19.292;2023-04-01T05:28:57;96824.14;;;9.14;74.65
69127;BME280;56688;50.234;19.292;2023-04-01T05:31:24;96827.45;;;9.20;74.25
69127;BME280;56688;50.234;19.292;2023-04-01T05:33:51;96828.61;;;9.23;74.16
69127;BME280;56688;50.234;19.292;2023-04-01T05:36:18;96831.10;;;9.27;74.06
69127;BME280;56688;50.234;19.292;2023-04-01T05:38:45;96834.25;;;9.28;73.64
69127;BME280;56688;50.234;19.292;2023-04-01T05:41:14;96830.05;;;9.34;73.63
69127;BME280;56688;50.234;19.292;2023-04-01T05:43:43;96830.46;;;9.42;73.64
69127;BME280;56688;50.234;19.292;2023-04-01T05:46:26;96831.19;;;9.54;73.39
69127;BME280;56688;50.234;19.292;2023-04-01T05:48:58;96831.75;;;9.63;72.67
69127;BME280;56688;50.234;19.292;2023-04-01T05:51:25;96830.42;;;9.70;72.36
69127;BME280;56688;50.234;19.292;2023-04-01T05:53:52;96830.79;;;9.78;72.14
69127;BME280;56688;50.234;19.292;2023-04-01T05:56:19;96828.41;;;9.84;71.76
69127;BME280;56688;50.234;19.292;2023-04-01T05:58:51;96829.73;;;9.93;71.78
69127;BME280;56688;50.234;19.292;2023-04-01T06:01:18;96826.48;;;10.06;71.60
69127;BME280;56688;50.234;19.292;2023-04-01T06:03:45;96831.23;;;10.14;70.73
69127;BME280;56688;50.234;19.292;2023-04-01T06:06:16;96834.02;;;10.20;70.51
69127;BME280;56688;50.234;19.292;2023-04-01T06:08:46;96837.77;;;10.25;70.30
69127;BME280;56688;50.234;19.292;2023-04-01T06:20:00;96841.80;;;10.36;69.13
69127;BME280;56688;50.234;19.292;2023-04-01T06:25:21;96842.68;;;10.37;69.62
69127;BME280;56688;50.234;19.292;2023-04-01T06:44:16;96855.05;;;10.39;69.20
69127;BME280;56688;50.234;19.292;2023-04-01T06:50:32;96851.65;;;10.39;69.42
69127;BME280;56688;50.234;19.292;2023-04-01T06:56:09;96846.60;;;10.44;69.12
69127;BME280;56688;50.234;19.292;2023-04-01T06:58:51;96843.77;;;10.50;68.87
69127;BME280;56688;50.234;19.292;2023-04-01T07:01:24;96848.14;;;10.59;68.99
69127;BME280;56688;50.234;19.292;2023-04-01T07:03:53;96849.68;;;10.69;68.95
69127;BME280;56688;50.234;19.292;2023-04-01T07:06:39;96852.27;;;10.78;68.66
69127;BME280;56688;50.234;19.292;2023-04-01T07:09:12;96854.58;;;10.90;68.44
69127;BME280;56688;50.234;19.292;2023-04-01T07:15:25;96863.06;;;11.23;67.15
69127;BME280;56688;50.234;19.292;2023-04-01T07:17:56;96859.06;;;11.31;66.51
69127;BME280;56688;50.234;19.292;2023-04-01T07:20:35;96857.85;;;11.31;66.17
69127;BME280;56688;50.234;19.292;2023-04-01T07:23:10;96860.55;;;11.30;66.36
69127;BME280;56688;50.234;19.292;2023-04-01T07:25:59;96859.39;;;11.31;66.61
69127;BME280;56688;50.234;19.292;2023-04-01T07:28:31;96862.31;;;11.44;66.57
69127;BME280;56688;50.234;19.292;2023-04-01T07:33:59;96858.52;;;11.69;66.07
69127;BME280;56688;50.234;19.292;2023-04-01T07:39:15;96867.95;;;11.81;65.50
69127;BME280;56688;50.234;19.292;2023-04-01T07:42:16;96862.36;;;11.85;65.27
69127;BME280;56688;50.234;19.292;2023-04-01T07:47:58;96870.98;;;12.01;65.23
69127;BME280;56688;50.234;19.292;2023-04-01T07:50:32;96868.86;;;11.91;65.50
69127;BME280;56688;50.234;19.292;2023-04-01T07:55:44;96869.84;;;11.73;65.66
69127;BME280;56688;50.234;19.292;2023-04-01T07:58:20;96873.19;;;11.66;65.94
69127;BME280;56688;50.234;19.292;2023-04-01T08:06:07;96879.41;;;11.80;67.02
69127;BME280;56688;50.234;19.292;2023-04-01T08:08:47;96882.43;;;11.82;66.80
69127;BME280;56688;50.234;19.292;2023-04-01T08:17:41;96885.98;;;11.73;66.47
69127;BME280;56688;50.234;19.292;2023-04-01T08:23:02;96892.38;;;11.66;67.20
69127;BME280;56688;50.234;19.292;2023-04-01T08:25:39;96897.08;;;11.58;67.82
69127;BME280;56688;50.234;19.292;2023-04-01T08:28:15;96897.33;;;11.56;68.69
69127;BME280;56688;50.234;19.292;2023-04-01T08:30:53;96899.80;;;11.54;68.71
69127;BME280;56688;50.234;19.292;2023-04-01T08:33:27;96900.98;;;11.52;69.39
69127;BME280;56688;50.234;19.292;2023-04-01T08:36:10;96901.55;;;11.50;69.54
69127;BME280;56688;50.234;19.292;2023-04-01T08:38:46;96898.17;;;11.53;69.91
69127;BME280;56688;50.234;19.292;2023-04-01T08:55:27;96893.61;;;11.90;68.02
69127;BME280;56688;50.234;19.292;2023-04-01T09:06:29;96897.41;;;12.19;65.33
69127;BME280;56688;50.234;19.292;2023-04-01T09:11:32;96897.12;;;12.07;65.78
69127;BME280;56688;50.234;19.292;2023-04-01T09:17:00;96898.80;;;11.93;66.52
69127;BME280;56688;50.234;19.292;2023-04-01T09:36:44;96892.98;;;12.53;70.76
69127;BME280;56688;50.234;19.292;2023-04-01T09:44:57;96886.53;;;13.01;67.27
69127;BME280;56688;50.234;19.292;2023-04-01T09:58:12;96891.63;;;13.26;64.31
69127;BME280;56688;50.234;19.292;2023-04-01T10:01:18;96888.27;;;13.10;64.90
69127;BME280;56688;50.234;19.292;2023-04-01T10:25:19;96893.48;;;13.71;67.93
69127;BME280;56688;50.234;19.292;2023-04-01T10:51:17;96891.65;;;14.44;61.40
69127;BME280;56688;50.234;19.292;2023-04-01T10:54:09;96893.89;;;14.45;62.07
69127;BME280;56688;50.234;19.292;2023-04-01T11:17:15;96909.08;;;12.58;69.87
69127;BME280;56688;50.234;19.292;2023-04-01T11:20:02;96909.34;;;12.81;70.45
69127;BME280;56688;50.234;19.292;2023-04-01T11:25:36;96913.19;;;13.40;69.41
69127;BME280;56688;50.234;19.292;2023-04-01T11:42:16;96895.92;;;15.25;62.15
69127;BME280;56688;50.234;19.292;2023-04-01T11:45:21;96897.45;;;15.25;61.99
69127;BME280;56688;50.234;19.292;2023-04-01T11:48:12;96896.10;;;15.54;61.83
69127;BME280;56688;50.234;19.292;2023-04-01T11:56:31;96891.61;;;16.02;56.39
69127;BME280;56688;50.234;19.292;2023-04-01T11:59:05;96893.33;;;16.04;56.78
69127;BME280;56688;50.234;19.292;2023-04-01T12:01:47;96889.15;;;16.48;56.32
69127;BME280;56688;50.234;19.292;2023-04-01T12:09:58;96880.70;;;16.96;51.77
69127;BME280;56688;50.234;19.292;2023-04-01T12:18:27;96893.20;;;15.87;52.73
69127;BME280;56688;50.234;19.292;2023-04-01T12:21:03;96891.44;;;15.49;53.46
69127;BME280;56688;50.234;19.292;2023-04-01T12:26:28;96895.85;;;14.97;54.60
69127;BME280;56688;50.234;19.292;2023-04-01T12:29:21;96905.31;;;14.69;56.19
69127;BME280;56688;50.234;19.292;2023-04-01T12:37:45;96918.65;;;13.33;64.30
69127;BME280;56688;50.234;19.292;2023-04-01T12:40:37;96918.73;;;12.99;65.77
69127;BME280;56688;50.234;19.292;2023-04-01T12:48:36;96927.45;;;12.35;68.67
69127;BME280;56688;50.234;19.292;2023-04-01T13:10:43;96928.86;;;12.47;71.08
69127;BME280;56688;50.234;19.292;2023-04-01T13:13:27;96923.05;;;12.57;70.82
69127;BME280;56688;50.234;19.292;2023-04-01T13:16:06;96926.86;;;12.75;71.28
69127;BME280;56688;50.234;19.292;2023-04-01T13:34:50;96927.10;;;13.06;69.01
69127;BME280;56688;50.234;19.292;2023-04-01T13:37:40;96927.21;;;13.10;68.70
69127;BME280;56688;50.234;19.292;2023-04-01T13:40:33;96936.09;;;13.12;68.73
69127;BME280;56688;50.234;19.292;2023-04-01T13:56:29;96939.23;;;13.31;66.91
69127;BME280;56688;50.234;19.292;2023-04-01T14:04:26;96941.42;;;13.48;65.93
69127;BME280;56688;50.234;19.292;2023-04-01T14:07:00;96944.98;;;13.43;64.57
69127;BME280;56688;50.234;19.292;2023-04-01T14:12:31;96946.98;;;13.12;63.67
69127;BME280;56688;50.234;19.292;2023-04-01T14:15:07;96968.67;;;12.92;64.41
69127;BME280;56688;50.234;19.292;2023-04-01T14:31:44;96974.34;;;11.24;71.10
69127;BME280;56688;50.234;19.292;2023-04-01T14:50:54;96991.25;;;11.64;74.03
69127;BME280;56688;50.234;19.292;2023-04-01T14:53:26;96991.39;;;11.83;73.62
69127;BME280;56688;50.234;19.292;2023-04-01T14:55:58;96998.66;;;11.99;72.85
69127;BME280;56688;50.234;19.292;2023-04-01T14:58:45;96993.80;;;12.12;71.67
69127;BME280;56688;50.234;19.292;2023-04-01T15:04:29;97007.61;;;12.24;68.48
69127;BME280;56688;50.234;19.292;2023-04-01T15:07:15;97009.29;;;12.25;68.54
69127;BME280;56688;50.234;19.292;2023-04-01T15:12:50;97004.80;;;12.20;67.83
69127;BME280;56688;50.234;19.292;2023-04-01T15:31:48;97026.84;;;12.07;70.52
69127;BME280;56688;50.234;19.292;2023-04-01T15:34:42;97027.15;;;12.06;70.82
69127;BME280;56688;50.234;19.292;2023-04-01T15:42:51;97034.56;;;12.01;71.74
69127;BME280;56688;50.234;19.292;2023-04-01T15:45:41;97033.02;;;12.02;72.09
69127;BME280;56688;50.234;19.292;2023-04-01T15:50:54;97032.61;;;11.93;72.36
69127;BME280;56688;50.234;19.292;2023-04-01T15:53:37;97037.71;;;11.91;72.25
69127;BME280;56688;50.234;19.292;2023-04-01T15:56:25;97042.52;;;11.88;72.41
69127;BME280;56688;50.234;19.292;2023-04-01T16:25:40;97043.00;;;11.25;73.84
69127;BME280;56688;50.234;19.292;2023-04-01T16:31:05;97052.45;;;11.08;74.51
69127;BME280;56688;50.234;19.292;2023-04-01T16:33:40;97054.33;;;11.00;74.61
69127;BME280;56688;50.234;19.292;2023-04-01T16:36:22;97059.11;;;10.93;74.92
69127;BME280;56688;50.234;19.292;2023-04-01T16:39:18;97063.84;;;10.86;75.12
69127;BME280;56688;50.234;19.292;2023-04-01T16:41:52;97070.95;;;10.79;75.15
69127;BME280;56688;50.234;19.292;2023-04-01T16:44:29;97075.80;;;10.79;75.43
69127;BME280;56688;50.234;19.292;2023-04-01T16:47:09;97081.62;;;10.80;75.38
69127;BME280;56688;50.234;19.292;2023-04-01T16:49:42;97085.15;;;10.78;75.28
69127;BME280;56688;50.234;19.292;2023-04-01T16:52:16;97090.34;;;10.73;75.04
69127;BME280;56688;50.234;19.292;2023-04-01T16:54:50;97092.44;;;10.66;74.91
69127;BME280;56688;50.234;19.292;2023-04-01T16:59:55;97100.23;;;10.51;75.12
69127;BME280;56688;50.234;19.292;2023-04-01T17:02:28;97102.72;;;10.47;75.37
69127;BME280;56688;50.234;19.292;2023-04-01T17:05:13;97105.23;;;10.49;75.46
69127;BME280;56688;50.234;19.292;2023-04-01T17:23:51;97133.90;;;10.38;75.66
69127;BME280;56688;50.234;19.292;2023-04-01T17:26:37;97135.91;;;10.35;75.91
69127;BME280;56688;50.234;19.292;2023-04-01T17:29:14;97139.19;;;10.35;76.13
69127;BME280;56688;50.234;19.292;2023-04-01T17:34:46;97142.89;;;10.39;76.00
69127;BME280;56688;50.234;19.292;2023-04-01T17:45:32;97147.56;;;10.31;76.47
69127;BME280;56688;50.234;19.292;2023-04-01T18:11:44;97182.21;;;10.28;76.47
69127;BME280;56688;50.234;19.292;2023-04-01T18:19:47;97196.87;;;10.27;76.60
69127;BME280;56688;50.234;19.292;2023-04-01T18:22:21;97196.66;;;10.26;76.88
69127;BME280;56688;50.234;19.292;2023-04-01T18:24:59;97203.79;;;10.25;77.04
69127;BME280;56688;50.234;19.292;2023-04-01T18:27:31;97206.93;;;10.26;77.56
69127;BME280;56688;50.234;19.292;2023-04-01T18:30:13;97212.52;;;10.28;77.52
69127;BME280;56688;50.234;19.292;2023-04-01T18:32:46;97211.39;;;10.30;77.82
69127;BME280;56688;50.234;19.292;2023-04-01T18:38:13;97217.82;;;10.27;78.15
69127;BME280;56688;50.234;19.292;2023-04-01T18:43:32;97223.27;;;10.26;78.47
69127;BME280;56688;50.234;19.292;2023-04-01T18:51:48;97237.39;;;10.30;79.07
69127;BME280;56688;50.234;19.292;2023-04-01T18:54:32;97239.52;;;10.30;79.08
69127;BME280;56688;50.234;19.292;2023-04-01T18:57:15;97239.00;;;10.27;79.31
69127;BME280;56688;50.234;19.292;2023-04-01T19:00:27;97237.55;;;10.22;78.91
69127;BME280;56688;50.234;19.292;2023-04-01T19:02:38;97248.96;;;10.15;79.12
69127;BME280;56688;50.234;19.292;2023-04-01T19:07:54;97253.05;;;10.12;79.47
69127;BME280;56688;50.234;19.292;2023-04-01T19:10:40;97255.12;;;10.09;79.67
69127;BME280;56688;50.234;19.292;2023-04-01T19:16:37;97256.50;;;10.07;79.71
69127;BME280;56688;50.234;19.292;2023-04-01T19:24:32;97264.70;;;10.07;80.08
69127;BME280;56688;50.234;19.292;2023-04-01T19:50:48;97292.25;;;9.91;80.01
69127;BME280;56688;50.234;19.292;2023-04-01T19:55:52;97298.13;;;9.88;80.06
69127;BME280;56688;50.234;19.292;2023-04-01T20:00:56;97302.03;;;9.89;79.98
69127;BME280;56688;50.234;19.292;2023-04-01T20:08:54;97309.38;;;9.87;80.13
69127;BME280;56688;50.234;19.292;2023-04-01T20:14:35;97310.50;;;9.85;80.11
69127;BME280;56688;50.234;19.292;2023-04-01T20:19:38;97316.92;;;9.88;80.23
69127;BME280;56688;50.234;19.292;2023-04-01T20:22:28;97313.69;;;9.88;80.02
69127;BME280;56688;50.234;19.292;2023-04-01T20:25:05;97314.63;;;9.90;80.12
69127;BME280;56688;50.234;19.292;2023-04-01T20:27:51;97318.81;;;9.90;79.82
69127;BME280;56688;50.234;19.292;2023-04-01T20:46:40;97330.67;;;9.80;79.69
69127;BME280;56688;50.234;19.292;2023-04-01T20:52:21;97334.02;;;9.75;79.67
69127;BME280;56688;50.234;19.292;2023-04-01T20:55:02;97339.60;;;9.72;79.62
69127;BME280;56688;50.234;19.292;2023-04-01T20:57:38;97340.09;;;9.72;79.97
69127;BME280;56688;50.234;19.292;2023-04-01T21:00:24;97342.19;;;9.74;79.94
69127;BME280;56688;50.234;19.292;2023-04-01T21:11:37;97349.04;;;9.76;79.89
69127;BME280;56688;50.234;19.292;2023-04-01T21:28:41;97364.22;;;9.76;79.69
69127;BME280;56688;50.234;19.292;2023-04-01T22:05:33;97381.55;;;9.54;81.23
69127;BME280;56688;50.234;19.292;2023-04-01T22:11:27;97381.24;;;9.60;81.47
69127;BME280;56688;50.234;19.292;2023-04-01T22:14:05;97378.64;;;9.60;81.64
69127;BME280;56688;50.234;19.292;2023-04-01T22:16:44;97384.27;;;9.62;81.42
69127;BME280;56688;50.234;19.292;2023-04-01T22:22:05;97390.09;;;9.69;81.67
69127;BME280;56688;50.234;19.292;2023-04-01T22:24:41;97393.73;;;9.70;81.58
69127;BME280;56688;50.234;19.292;2023-04-01T22:32:43;97397.41;;;9.77;81.85
69127;BME280;56688;50.234;19.292;2023-04-01T22:35:15;97402.69;;;9.81;81.66
69127;BME280;56688;50.234;19.292;2023-04-01T22:40:35;97405.84;;;9.84;81.46
69127;BME280;56688;50.234;19.292;2023-04-01T22:43:10;97410.90;;;9.84;81.64
69127;BME280;56688;50.234;19.292;2023-04-01T22:48:28;97410.02;;;9.86;81.84
69127;BME280;56688;50.234;19.292;2023-04-01T22:56:20;97415.09;;;9.93;81.74
69127;BME280;56688;50.234;19.292;2023-04-01T22:58:57;97416.56;;;9.94;81.68
69127;BME280;56688;50.234;19.292;2023-04-01T23:01:31;97416.20;;;9.91;81.53
69127;BME280;56688;50.234;19.292;2023-04-01T23:04:00;97419.36;;;9.92;81.80
69127;BME280;56688;50.234;19.292;2023-04-01T23:06:35;97422.31;;;9.92;81.80
69127;BME280;56688;50.234;19.292;2023-04-01T23:09:12;97421.40;;;9.94;81.72
69127;BME280;56688;50.234;19.292;2023-04-01T23:11:50;97423.19;;;9.96;81.72
69127;BME280;56688;50.234;19.292;2023-04-01T23:16:54;97425.52;;;9.97;81.83
69127;BME280;56688;50.234;19.292;2023-04-01T23:19:32;97427.72;;;9.97;81.84
69127;BME280;56688;50.234;19.292;2023-04-01T23:22:21;97432.89;;;9.95;81.89
69127;BME280;56688;50.234;19.292;2023-04-01T23:28:17;97430.42;;;9.94;81.78
69127;BME280;56688;50.234;19.292;2023-04-01T23:30:47;97432.48;;;9.96;82.02
69127;BME280;56688;50.234;19.292;2023-04-01T23:35:59;97433.88;;;9.99;81.92
69127;BME280;56688;50.234;19.292;2023-04-01T23:38:37;97435.43;;;9.99;81.78
69127;BME280;56688;50.234;19.292;2023-04-01T23:41:05;97436.23;;;9.97;81.90
69127;BME280;56688;50.234;19.292;2023-04-01T23:43:37;97437.06;;;9.96;81.81
69127;BME280;56688;50.234;19.292;2023-04-01T23:46:06;97440.60;;;9.96;81.77
69127;BME280;56688;50.234;19.292;2023-04-01T23:48:37;97440.90;;;9.97;81.93
69127;BME280;56688;50.234;19.292;2023-04-01T23:51:17;97439.99;;;9.98;82.05
69127;BME280;56688;50.234;19.292;2023-04-01T23:53:46;97440.59;;;10.00;82.11
69127;BME280;56688;50.234;19.292;2023-04-01T23:56:17;97444.02;;;10.02;81.88
69127;BME280;56688;50.234;19.292;2023-04-01T23:58:48;97443.54;;;10.02;81.85
